Time;durP1;ratioP1;P1;durP2;ratioP2;P2;SDS_P1;SDS_P2;PMS_P1;PMS_P2;Temp;Humidity;BMP_temperature;BMP_pressure;BME280_temperature;BME280_humidity;BME280_pressure;Samples;Min_cycle;Max_cycle;Signal;HPM_P1;HPM_P2
2021/12/19 00:09:07;;;;;;;24.40;12.98;;;6.30;99.90;;;;;;5015171;28;20490;-71
2021/12/19 00:11:33;;;;;;;24.73;13.75;;;6.50;99.90;;;;;;5013219;28;20124;-71
2021/12/19 00:14:00;;;;;;;26.13;14.50;;;6.50;99.90;;;;;;5013962;28;20026;-71
2021/12/19 00:16:27;;;;;;;25.63;12.75;;;6.40;99.90;;;;;;5013815;28;20037;-71
2021/12/19 00:18:53;;;;;;;26.48;14.13;;;6.50;99.90;;;;;;5014993;28;20060;-71
2021/12/19 00:21:20;;;;;;;23.55;13.60;;;6.50;99.90;;;;;;5014585;28;20034;-70
2021/12/19 00:23:49;;;;;;;20.77;12.98;;;6.50;99.90;;;;;;5013068;28;20101;-70
2021/12/19 00:26:16;;;;;;;24.25;13.10;;;6.50;99.90;;;;;;5012385;28;20030;-70
2021/12/19 00:28:42;;;;;;;22.88;13.40;;;6.50;99.90;;;;;;5011216;28;20434;-70
2021/12/19 00:31:08;;;;;;;19.95;11.43;;;6.60;99.90;;;;;;5015512;28;20125;-70
2021/12/19 00:33:34;;;;;;;23.05;12.80;;;6.60;99.90;;;;;;5014860;28;20061;-69
2021/12/19 00:36:00;;;;;;;24.55;13.38;;;6.60;99.90;;;;;;5014380;28;20029;-74
2021/12/19 00:38:26;;;;;;;22.75;12.88;;;6.60;99.90;;;;;;5014797;28;20551;-69
2021/12/19 00:40:52;;;;;;;25.85;14.25;;;6.60;99.90;;;;;;5013544;28;20088;-70
2021/12/19 00:43:35;;;;;;;25.73;14.35;;;6.60;99.90;;;;;;5014739;28;20029;-71
2021/12/19 00:46:09;;;;;;;28.98;15.30;;;6.60;99.90;;;;;;5014700;28;20018;-70
2021/12/19 00:48:39;;;;;;;28.98;14.07;;;6.60;99.90;;;;;;5013689;28;20026;-71
2021/12/19 00:51:07;;;;;;;30.73;15.20;;;6.60;99.90;;;;;;5015719;28;20518;-70
2021/12/19 00:53:33;;;;;;;29.85;15.82;;;6.50;99.90;;;;;;5019076;28;20045;-72
2021/12/19 00:56:00;;;;;;;32.25;15.45;;;6.60;99.90;;;;;;5016469;28;20030;-70
2021/12/19 00:58:25;;;;;;;34.55;16.42;;;6.60;99.90;;;;;;5016197;28;20037;-69
2021/12/19 01:00:53;;;;;;;31.25;16.98;;;6.60;99.90;;;;;;5016448;28;20033;-71
2021/12/19 01:03:21;;;;;;;27.73;14.95;;;6.50;99.90;;;;;;5016644;28;20026;-73
2021/12/19 01:05:48;;;;;;;34.28;14.80;;;6.60;99.90;;;;;;5016677;28;20036;-69
2021/12/19 01:08:13;;;;;;;27.17;13.35;;;6.40;99.90;;;;;;5016830;28;20491;-70
2021/12/19 01:10:42;;;;;;;25.05;14.60;;;6.30;99.90;;;;;;5016305;28;20118;-69
2021/12/19 01:13:09;;;;;;;26.15;15.15;;;6.30;99.90;;;;;;5015650;28;20034;-69
2021/12/19 01:15:35;;;;;;;26.85;14.52;;;6.40;99.90;;;;;;5015413;28;20456;-70
2021/12/19 01:18:02;;;;;;;27.83;15.10;;;6.20;99.90;;;;;;5017803;28;20030;-70
2021/12/19 01:20:30;;;;;;;28.67;14.93;;;6.10;99.90;;;;;;5017396;28;20036;-69
2021/12/19 01:22:56;;;;;;;30.48;15.25;;;6.10;99.90;;;;;;5017313;28;20101;-69
2021/12/19 01:25:22;;;;;;;27.58;15.20;;;6.20;99.90;;;;;;5017173;28;20025;-69
2021/12/19 01:27:48;;;;;;;27.75;14.65;;;6.10;99.90;;;;;;5014615;28;20456;-66
2021/12/19 01:30:15;;;;;;;29.30;15.35;;;6.10;99.90;;;;;;5016966;28;20033;-71
2021/12/19 01:32:41;;;;;;;28.30;14.60;;;6.20;99.90;;;;;;5016512;28;20041;-69
2021/12/19 01:35:09;;;;;;;25.40;14.48;;;6.20;99.90;;;;;;5016041;28;20026;-70
2021/12/19 01:37:35;;;;;;;30.08;15.85;;;6.30;99.90;;;;;;5015170;28;20455;-72
2021/12/19 01:40:02;;;;;;;33.05;14.88;;;6.40;99.90;;;;;;5017197;28;20045;-69
2021/12/19 01:42:33;;;;;;;28.35;15.05;;;6.40;99.90;;;;;;5017293;28;20030;-69
2021/12/19 01:44:59;;;;;;;23.48;12.63;;;6.20;99.90;;;;;;5016992;28;20029;-71
2021/12/19 01:47:26;;;;;;;26.95;13.88;;;6.30;99.90;;;;;;5017178;28;20387;-71
2021/12/19 01:49:51;;;;;;;22.70;13.25;;;6.30;99.90;;;;;;5017659;28;20041;-69
2021/12/19 01:52:18;;;;;;;27.23;14.38;;;6.20;99.90;;;;;;5017043;28;20030;-69
2021/12/19 01:54:45;;;;;;;24.48;13.05;;;6.40;99.90;;;;;;5014399;28;20034;-72
2021/12/19 01:57:11;;;;;;;25.35;12.30;;;6.40;99.90;;;;;;5016592;28;20460;-70
2021/12/19 01:59:37;;;;;;;24.00;14.07;;;6.40;99.90;;;;;;5015777;28;20033;-69
2021/12/19 02:02:03;;;;;;;23.00;12.73;;;6.30;99.90;;;;;;4998743;28;20117;-71
2021/12/19 02:04:30;;;;;;;26.73;14.15;;;6.20;99.90;;;;;;5014975;28;20098;-75
2021/12/19 02:06:58;;;;;;;27.02;14.00;;;6.20;99.90;;;;;;5016497;28;20049;-71
2021/12/19 02:09:25;;;;;;;25.58;12.77;;;6.20;99.90;;;;;;5017653;28;20034;-71
2021/12/19 02:11:51;;;;;;;24.35;14.10;;;6.10;99.90;;;;;;5019174;28;20030;-70
2021/12/19 02:14:17;;;;;;;24.88;14.25;;;6.00;99.90;;;;;;5017357;28;20030;-69
2021/12/19 02:16:43;;;;;;;22.58;12.30;;;6.00;99.90;;;;;;5015969;28;20122;-70
2021/12/19 02:19:10;;;;;;;22.85;13.43;;;6.10;99.90;;;;;;5017307;28;20094;-69
2021/12/19 02:21:37;;;;;;;22.77;13.52;;;6.20;99.90;;;;;;5016692;28;20034;-69
2021/12/19 02:24:06;;;;;;;23.60;13.10;;;6.20;99.90;;;;;;5014774;28;20036;-69
2021/12/19 02:26:32;;;;;;;23.98;12.77;;;6.30;99.90;;;;;;5015430;28;20045;-69
2021/12/19 02:28:57;;;;;;;25.27;12.50;;;6.20;99.90;;;;;;5015181;28;20053;-71
2021/12/19 02:31:23;;;;;;;21.40;13.07;;;6.20;99.90;;;;;;5016668;28;20037;-69
2021/12/19 02:50:18;;;;;;;21.50;12.20;;;6.10;99.90;;;;;;5015117;28;20036;-69
2021/12/19 02:52:44;;;;;;;20.00;11.63;;;6.10;99.90;;;;;;5014643;28;20026;-70
2021/12/19 02:55:13;;;;;;;22.27;11.65;;;6.20;99.90;;;;;;5015113;28;20037;-71
2021/12/19 02:57:40;;;;;;;22.75;11.05;;;6.20;99.90;;;;;;5013187;28;20084;-70
2021/12/19 03:00:15;;;;;;;20.80;11.85;;;6.30;99.90;;;;;;5015237;28;20065;-69
2021/12/19 03:02:41;;;;;;;19.80;11.27;;;6.20;99.90;;;;;;5014713;28;20026;-69
2021/12/19 03:05:07;;;;;;;17.33;10.50;;;6.30;99.90;;;;;;5014469;28;20037;-72
2021/12/19 03:07:38;;;;;;;16.33;10.55;;;6.40;99.90;;;;;;5015256;28;20029;-69
2021/12/19 03:18:24;;;;;;;18.50;11.38;;;6.50;99.90;;;;;;5017719;28;20041;-69
2021/12/19 03:20:50;;;;;;;18.05;10.63;;;6.50;99.90;;;;;;5014313;28;20034;-69
2021/12/19 03:23:16;;;;;;;20.33;12.65;;;6.40;99.90;;;;;;5013146;28;20430;-70
2021/12/19 03:25:42;;;;;;;18.95;10.77;;;6.50;99.90;;;;;;5012419;28;20026;-69
2021/12/19 03:28:09;;;;;;;20.77;11.80;;;6.40;99.90;;;;;;5012366;28;20054;-69
2021/12/19 03:30:36;;;;;;;23.15;11.32;;;6.50;99.90;;;;;;5013937;28;20037;-69
2021/12/19 03:33:02;;;;;;;17.85;11.35;;;6.40;99.90;;;;;;5012214;28;20083;-71
2021/12/19 03:35:30;;;;;;;18.40;10.38;;;6.30;99.90;;;;;;5013696;28;20102;-69
2021/12/19 03:37:59;;;;;;;21.70;11.48;;;6.20;99.90;;;;;;5012339;28;20033;-72
2021/12/19 03:40:35;;;;;;;19.20;11.00;;;6.20;99.90;;;;;;5013722;28;20035;-71
2021/12/19 03:43:05;;;;;;;17.85;10.85;;;6.20;99.90;;;;;;5013818;28;20053;-70
2021/12/19 03:45:31;;;;;;;17.92;10.43;;;6.30;99.90;;;;;;5012949;28;20119;-71
2021/12/19 03:47:57;;;;;;;16.42;9.35;;;6.30;99.90;;;;;;5012149;28;20479;-69
2021/12/19 03:50:23;;;;;;;16.23;10.65;;;6.30;99.90;;;;;;5013917;28;20030;-69
2021/12/19 03:52:54;;;;;;;19.77;10.48;;;6.30;99.90;;;;;;5013773;28;20064;-69
2021/12/19 03:55:21;;;;;;;16.75;9.77;;;6.30;99.90;;;;;;5014546;28;20131;-71
2021/12/19 03:57:47;;;;;;;16.08;9.10;;;6.30;99.90;;;;;;5013544;28;20061;-75
2021/12/19 04:00:17;;;;;;;16.13;10.60;;;6.40;99.90;;;;;;5014272;28;20080;-69
2021/12/19 04:02:43;;;;;;;16.25;9.68;;;6.30;99.90;;;;;;4996517;28;20030;-68
2021/12/19 04:05:09;;;;;;;13.85;8.88;;;6.40;99.90;;;;;;5013799;28;20109;-70
2021/12/19 04:07:34;;;;;;;15.27;9.57;;;6.40;99.90;;;;;;5012974;28;20037;-69
2021/12/19 04:10:00;;;;;;;18.85;10.30;;;6.40;99.90;;;;;;5013254;28;20237;-69
2021/12/19 04:12:28;;;;;;;18.70;11.00;;;6.40;99.90;;;;;;5012065;28;20042;-69
2021/12/19 04:14:55;;;;;;;14.18;9.55;;;6.40;99.90;;;;;;5013108;28;20030;-69
2021/12/19 04:17:21;;;;;;;13.65;9.30;;;6.40;99.90;;;;;;5013339;28;20046;-69
2021/12/19 04:19:47;;;;;;;17.55;10.10;;;6.40;99.90;;;;;;5011438;28;20113;-69
2021/12/19 04:22:12;;;;;;;15.45;9.43;;;6.40;99.90;;;;;;5012989;28;20123;-68
2021/12/19 04:24:38;;;;;;;12.85;8.68;;;6.50;99.90;;;;;;5013099;28;20052;-68
2021/12/19 04:27:04;;;;;;;17.77;10.65;;;6.60;99.90;;;;;;5011748;28;20030;-68
2021/12/19 04:29:30;;;;;;;17.25;10.23;;;6.50;99.90;;;;;;5012999;28;20050;-68
2021/12/19 04:31:56;;;;;;;17.05;10.10;;;6.40;99.90;;;;;;5011441;28;20041;-68
2021/12/19 04:34:23;;;;;;;14.48;9.40;;;6.30;99.90;;;;;;5013658;28;20032;-69
2021/12/19 04:36:56;;;;;;;13.65;9.43;;;6.40;99.90;;;;;;5011899;28;20033;-69
2021/12/19 04:39:35;;;;;;;15.40;10.00;;;6.50;99.90;;;;;;5013735;28;20060;-70
2021/12/19 04:43:07;;;;;;;13.50;8.80;;;6.50;99.90;;;;;;5013946;28;20026;-68
2021/12/19 04:53:14;;;;;;;13.02;8.77;;;6.40;99.90;;;;;;5012551;28;20045;-68
2021/12/19 04:56:51;;;;;;;15.63;9.65;;;6.40;99.90;;;;;;5011889;28;20053;-70
2021/12/19 04:58:53;;;;;;;14.25;9.65;;;6.50;99.90;;;;;;5013131;28;20042;-71
2021/12/19 05:14:38;;;;;;;12.98;8.75;;;6.40;99.90;;;;;;5013661;28;20407;-70
2021/12/19 05:17:08;;;;;;;11.43;7.82;;;6.30;99.90;;;;;;5013237;28;20026;-68
2021/12/19 05:19:47;;;;;;;11.70;7.90;;;6.20;99.90;;;;;;5017598;28;20076;-70
2021/12/19 05:22:14;;;;;;;10.65;7.93;;;6.20;99.90;;;;;;5016038;28;20460;-68
2021/12/19 05:24:51;;;;;;;11.77;8.23;;;6.30;99.90;;;;;;5012944;28;20030;-70
2021/12/19 05:27:17;;;;;;;10.20;7.53;;;6.40;99.90;;;;;;5011847;28;20029;-68
2021/12/19 05:29:42;;;;;;;9.55;7.22;;;6.40;99.90;;;;;;5012765;28;20407;-68
2021/12/19 05:32:08;;;;;;;8.98;6.55;;;6.30;99.90;;;;;;5011871;28;20097;-67
2021/12/19 05:34:35;;;;;;;8.90;6.78;;;6.30;99.90;;;;;;5012056;28;20046;-68
2021/12/19 05:45:14;;;;;;;9.13;6.32;;;6.30;99.90;;;;;;5016094;28;20080;-67
2021/12/19 05:47:45;;;;;;;9.63;7.22;;;6.30;99.90;;;;;;5014936;28;20049;-69
2021/12/19 05:50:12;;;;;;;10.43;7.15;;;6.30;99.90;;;;;;5015829;28;20026;-69
2021/12/19 05:52:39;;;;;;;9.43;6.60;;;6.30;99.90;;;;;;5015717;28;20113;-70
2021/12/19 05:55:06;;;;;;;8.73;6.47;;;6.40;99.90;;;;;;5014319;28;20486;-68
2021/12/19 05:57:32;;;;;;;10.57;6.85;;;6.40;99.90;;;;;;5015629;28;20041;-68
2021/12/19 05:59:58;;;;;;;9.38;6.30;;;6.40;99.90;;;;;;5016609;28;20048;-68
2021/12/19 06:02:25;;;;;;;11.23;7.68;;;6.30;99.90;;;;;;5015824;28;20030;-69
2021/12/19 06:04:50;;;;;;;11.15;7.32;;;6.30;99.90;;;;;;5015302;28;20049;-68
2021/12/19 06:07:16;;;;;;;9.70;5.95;;;6.10;99.90;;;;;;5015558;28;20061;-69
2021/12/19 06:09:42;;;;;;;10.45;6.18;;;6.20;99.90;;;;;;5015276;28;20454;-70
2021/12/19 06:12:08;;;;;;;10.85;7.18;;;6.20;99.90;;;;;;5013841;28;20542;-69
2021/12/19 06:14:34;;;;;;;8.90;6.50;;;6.20;99.90;;;;;;5014438;28;20026;-70
2021/12/19 06:17:00;;;;;;;10.77;6.78;;;6.20;99.90;;;;;;5015497;28;20026;-68
2021/12/19 06:19:27;;;;;;;11.73;7.20;;;6.20;99.90;;;;;;5015686;28;20088;-69
2021/12/19 06:21:53;;;;;;;13.63;7.70;;;6.10;99.90;;;;;;5014744;28;20038;-69
2021/12/19 06:24:19;;;;;;;13.15;7.93;;;6.30;99.90;;;;;;5014546;28;20045;-73
2021/12/19 06:26:45;;;;;;;12.48;8.10;;;6.40;99.90;;;;;;5015084;28;20116;-68
2021/12/19 06:29:11;;;;;;;14.35;8.25;;;6.20;99.90;;;;;;5015694;28;20077;-71
2021/12/19 06:31:36;;;;;;;12.65;8.05;;;6.20;99.90;;;;;;5015717;28;20470;-69
2021/12/19 06:34:02;;;;;;;16.63;8.93;;;6.30;99.90;;;;;;5015297;28;20061;-71
2021/12/19 06:36:28;;;;;;;12.32;7.65;;;6.30;99.90;;;;;;5015592;28;20466;-69
2021/12/19 06:38:54;;;;;;;16.40;8.65;;;6.30;99.90;;;;;;5014387;28;20116;-68
2021/12/19 06:41:20;;;;;;;11.75;7.40;;;6.30;99.90;;;;;;5014317;28;20471;-70
2021/12/19 06:43:46;;;;;;;13.27;7.90;;;6.30;99.90;;;;;;5015129;28;20030;-68
2021/12/19 06:46:12;;;;;;;12.15;7.78;;;6.30;99.90;;;;;;5014855;28;20451;-71
2021/12/19 06:48:38;;;;;;;15.82;8.90;;;6.40;99.90;;;;;;5014848;28;20080;-70
2021/12/19 06:51:04;;;;;;;16.90;8.93;;;6.30;99.90;;;;;;5017263;28;20034;-69
2021/12/19 06:53:30;;;;;;;14.82;9.15;;;6.40;99.90;;;;;;5016034;28;20053;-69
2021/12/19 06:55:56;;;;;;;16.08;8.88;;;6.50;99.90;;;;;;5013987;28;20418;-69
2021/12/19 06:58:22;;;;;;;15.68;9.35;;;6.60;99.90;;;;;;5013365;28;20487;-68
2021/12/19 07:00:48;;;;;;;16.23;8.77;;;6.40;99.90;;;;;;5013619;28;20065;-68
2021/12/19 07:03:15;;;;;;;16.55;9.48;;;6.30;99.90;;;;;;5014142;28;20577;-69
2021/12/19 07:05:42;;;;;;;16.80;10.38;;;6.30;99.90;;;;;;5013422;28;20025;-71
2021/12/19 07:08:08;;;;;;;19.30;11.00;;;6.20;99.90;;;;;;5014699;28;20378;-69
2021/12/19 07:10:34;;;;;;;15.52;10.27;;;6.10;99.90;;;;;;5017148;28;20591;-70
2021/12/19 07:13:00;;;;;;;18.42;10.48;;;6.10;99.90;;;;;;5017043;28;20034;-69
2021/12/19 07:15:27;;;;;;;17.73;10.50;;;6.10;99.90;;;;;;5018075;28;20026;-68
2021/12/19 07:17:53;;;;;;;19.00;11.10;;;6.10;99.90;;;;;;5015144;28;20037;-70
2021/12/19 07:20:18;;;;;;;15.73;9.90;;;6.20;99.90;;;;;;5015839;28;20026;-70
2021/12/19 07:22:44;;;;;;;19.33;10.65;;;6.30;99.90;;;;;;5017332;28;20464;-71
2021/12/19 07:25:10;;;;;;;25.38;11.13;;;6.30;99.90;;;;;;5015708;28;20061;-70
2021/12/19 07:27:36;;;;;;;17.95;10.25;;;6.20;99.90;;;;;;5014858;28;20037;-71
2021/12/19 07:30:03;;;;;;;20.23;12.02;;;6.10;99.90;;;;;;5013997;28;20062;-69
2021/12/19 07:32:28;;;;;;;20.05;11.45;;;6.10;99.90;;;;;;5012878;28;20037;-69
2021/12/19 07:34:54;;;;;;;22.23;12.13;;;6.00;99.90;;;;;;5012866;28;20120;-71
2021/12/19 07:37:20;;;;;;;22.50;12.35;;;6.00;99.90;;;;;;5014348;28;20037;-69
2021/12/19 07:40:09;;;;;;;21.23;11.32;;;5.90;99.90;;;;;;5014797;28;20136;-70
2021/12/19 07:42:35;;;;;;;21.65;11.93;;;5.90;99.90;;;;;;5013249;28;20038;-69
2021/12/19 07:45:01;;;;;;;20.60;12.02;;;6.00;99.90;;;;;;5015418;28;20082;-70
2021/12/19 07:47:26;;;;;;;17.63;10.27;;;6.00;99.90;;;;;;5014709;28;20026;-69
2021/12/19 07:49:52;;;;;;;22.63;13.02;;;6.10;99.90;;;;;;5013958;28;20399;-71
2021/12/19 07:52:18;;;;;;;17.90;11.60;;;6.00;99.90;;;;;;5013528;28;20480;-70
2021/12/19 07:54:44;;;;;;;23.92;12.27;;;6.10;99.90;;;;;;5015429;28;20255;-71
2021/12/19 07:57:10;;;;;;;21.25;12.65;;;6.10;99.90;;;;;;5013785;28;20034;-68
2021/12/19 07:59:36;;;;;;;19.80;11.98;;;6.10;99.90;;;;;;5012558;28;20030;-69
2021/12/19 08:02:02;;;;;;;22.60;12.00;;;6.00;99.90;;;;;;5012162;28;20034;-69
2021/12/19 08:04:28;;;;;;;22.02;12.18;;;5.90;99.90;;;;;;5014149;28;20076;-69
2021/12/19 08:06:54;;;;;;;21.67;12.50;;;6.10;99.90;;;;;;5013441;28;20472;-70
2021/12/19 08:09:24;;;;;;;23.63;13.43;;;6.20;99.90;;;;;;5013848;28;20025;-71
2021/12/19 08:11:51;;;;;;;20.52;12.82;;;6.10;99.90;;;;;;5012582;28;20072;-69
2021/12/19 08:14:17;;;;;;;20.90;11.63;;;6.10;99.90;;;;;;5012935;28;20037;-69
2021/12/19 08:16:45;;;;;;;18.45;12.23;;;6.10;99.90;;;;;;5013695;28;20022;-69
2021/12/19 08:19:11;;;;;;;21.83;12.07;;;6.20;99.90;;;;;;5013301;28;20025;-69
2021/12/19 08:21:37;;;;;;;22.40;12.15;;;6.10;99.90;;;;;;5015487;28;20068;-72
2021/12/19 08:24:09;;;;;;;22.65;11.90;;;6.00;99.90;;;;;;5015920;28;20034;-72
2021/12/19 08:26:35;;;;;;;;;;;6.10;99.90;;;;;;5017882;28;20038;-69
2021/12/19 08:29:01;;;;;;;19.65;11.85;;;6.10;99.90;;;;;;5015716;28;20370;-72
2021/12/19 08:31:27;;;;;;;22.08;12.77;;;6.20;99.90;;;;;;5015217;28;20065;-69
2021/12/19 08:33:53;;;;;;;19.67;11.73;;;6.20;99.90;;;;;;5013334;28;20029;-72
2021/12/19 08:36:19;;;;;;;24.83;12.68;;;6.10;99.90;;;;;;5013432;28;20088;-70
2021/12/19 08:38:46;;;;;;;22.38;12.02;;;6.20;99.90;;;;;;5014867;28;20026;-74
2021/12/19 08:41:12;;;;;;;19.92;11.38;;;6.20;99.90;;;;;;5014563;28;20452;-72
2021/12/19 08:43:38;;;;;;;19.48;11.57;;;6.30;99.90;;;;;;5014618;28;20026;-71
2021/12/19 08:46:03;;;;;;;23.10;13.02;;;6.90;99.90;;;;;;5014399;28;20038;-72
2021/12/19 08:48:29;;;;;;;21.20;11.82;;;7.10;99.90;;;;;;5014646;28;20117;-69
2021/12/19 08:50:55;;;;;;;19.67;11.73;;;6.90;99.90;;;;;;5014736;28;20088;-70
2021/12/19 08:53:20;;;;;;;17.77;11.18;;;6.80;99.90;;;;;;5012687;28;20037;-69
2021/12/19 08:55:46;;;;;;;19.88;11.48;;;6.70;99.90;;;;;;4998403;28;20033;-71
2021/12/19 08:58:12;;;;;;;19.60;11.38;;;6.70;99.90;;;;;;5012478;28;20026;-69
2021/12/19 09:00:38;;;;;;;20.45;12.00;;;6.70;99.90;;;;;;5013843;28;20471;-70
2021/12/19 09:03:05;;;;;;;19.42;11.90;;;6.60;99.90;;;;;;5013611;28;20112;-69
2021/12/19 09:05:32;;;;;;;23.70;14.00;;;6.50;99.90;;;;;;5013932;28;20034;-71
2021/12/19 09:07:58;;;;;;;19.85;11.50;;;6.60;99.90;;;;;;5013333;28;20494;-69
2021/12/19 09:10:24;;;;;;;18.10;11.48;;;7.40;99.90;;;;;;5015491;28;20033;-70
2021/12/19 09:12:51;;;;;;;22.60;11.73;;;8.50;99.90;;;;;;5019073;28;20105;-70
2021/12/19 09:15:16;;;;;;;19.55;11.95;;;9.70;99.90;;;;;;5016039;28;20447;-70
2021/12/19 09:17:42;;;;;;;20.15;10.82;;;10.70;99.90;;;;;;5016977;28;20061;-69
2021/12/19 09:20:09;;;;;;;15.30;10.10;;;10.60;99.90;;;;;;5016231;28;20100;-71
2021/12/19 09:22:35;;;;;;;16.80;11.07;;;11.70;99.90;;;;;;5016468;28;20033;-70
2021/12/19 09:25:02;;;;;;;17.15;10.73;;;11.60;99.90;;;;;;5016199;28;20104;-70
2021/12/19 09:27:28;;;;;;;16.70;9.93;;;12.40;99.90;;;;;;5016335;28;20061;-69
2021/12/19 09:29:53;;;;;;;18.80;11.38;;;12.70;99.90;;;;;;5016412;28;20080;-70
2021/12/19 09:32:19;;;;;;;17.52;11.98;;;12.70;99.90;;;;;;5015906;28;20323;-71
2021/12/19 09:34:45;;;;;;;17.40;9.75;;;12.90;99.90;;;;;;5015277;28;20478;-71
2021/12/19 09:37:12;;;;;;;16.05;11.32;;;13.00;99.90;;;;;;5015154;28;20030;-71
2021/12/19 09:39:38;;;;;;;15.52;10.50;;;12.80;99.90;;;;;;5016100;28;20022;-73
2021/12/19 09:42:14;;;;;;;15.57;10.20;;;13.00;99.90;;;;;;5016120;28;20040;-71
2021/12/19 09:44:40;;;;;;;14.68;10.50;;;12.80;99.90;;;;;;5018256;28;20057;-74
2021/12/19 09:47:07;;;;;;;15.85;10.70;;;12.50;99.90;;;;;;5018393;28;20072;-72
2021/12/19 09:49:34;;;;;;;15.40;10.57;;;12.70;99.90;;;;;;5017184;28;20021;-69
2021/12/19 09:52:02;;;;;;;13.95;9.80;;;12.50;99.90;;;;;;5015565;28;20030;-69
2021/12/19 09:54:28;;;;;;;18.27;11.95;;;12.80;99.90;;;;;;5013026;28;20037;-71
2021/12/19 09:56:54;;;;;;;16.40;10.63;;;12.70;99.90;;;;;;5012397;28;20030;-70
2021/12/19 09:59:21;;;;;;;23.80;12.45;;;12.20;99.90;;;;;;5012901;28;20457;-72
2021/12/19 10:01:49;;;;;;;21.35;11.75;;;12.20;99.90;;;;;;5016465;28;20037;-71
2021/12/19 10:04:38;;;;;;;19.95;10.95;;;11.60;99.90;;;;;;5015139;28;20030;-71
2021/12/19 10:07:03;;;;;;;17.60;11.30;;;11.30;99.90;;;;;;5015580;28;20030;-71
2021/12/19 10:09:29;;;;;;;16.70;10.77;;;10.70;99.90;;;;;;5015750;28;20037;-70
2021/12/19 10:12:09;;;;;;;17.92;12.40;;;10.40;99.90;;;;;;5014457;28;20514;-70
2021/12/19 10:14:37;;;;;;;20.05;12.65;;;10.30;99.90;;;;;;5016217;28;20468;-71
2021/12/19 10:17:19;;;;;;;17.30;10.98;;;10.20;99.90;;;;;;5015074;28;20034;-75
2021/12/19 10:19:49;;;;;;;20.98;12.00;;;10.70;99.90;;;;;;5014698;28;20037;-71
2021/12/19 10:22:24;;;;;;;19.67;11.75;;;11.00;99.90;;;;;;5013764;28;20120;-74
2021/12/19 10:24:52;;;;;;;18.10;11.82;;;12.10;99.90;;;;;;5014715;28;20080;-71
2021/12/19 10:27:47;;;;;;;18.08;12.48;;;13.20;99.90;;;;;;5013494;28;20037;-70
2021/12/19 10:30:18;;;;;;;17.88;11.35;;;14.20;99.90;;;;;;5012655;28;20147;-71
2021/12/19 10:32:54;;;;;;;16.77;11.73;;;14.90;99.90;;;;;;5011275;28;20092;-70
2021/12/19 10:35:26;;;;;;;18.45;11.60;;;15.20;99.90;;;;;;5012151;28;20096;-71
2021/12/19 10:37:51;;;;;;;23.67;11.43;;;15.60;99.90;;;;;;5015235;28;20022;-71
2021/12/19 10:40:17;;;;;;;16.48;11.68;;;15.90;98.50;;;;;;5017239;28;20037;-72
2021/12/19 10:42:49;;;;;;;17.30;11.10;;;16.30;95.80;;;;;;5015449;28;20030;-70
2021/12/19 10:45:30;;;;;;;15.98;11.77;;;16.30;96.60;;;;;;5012492;28;20033;-68
2021/12/19 10:48:18;;;;;;;17.55;12.55;;;16.70;98.50;;;;;;5012348;28;20033;-71
2021/12/19 10:50:47;;;;;;;15.07;9.43;;;17.40;93.80;;;;;;4994102;28;20042;-70
2021/12/19 10:53:15;;;;;;;14.40;10.40;;;17.40;96.20;;;;;;5010569;28;20060;-70
2021/12/19 10:55:46;;;;;;;13.85;10.02;;;16.50;93.50;;;;;;5014827;28;20022;-70
2021/12/19 10:58:43;;;;;;;15.93;11.20;;;15.40;94.40;;;;;;5012302;28;20026;-68
2021/12/19 11:01:33;;;;;;;14.60;10.18;;;14.50;96.50;;;;;;5005838;28;20446;-70
2021/12/19 11:04:04;;;;;;;15.75;9.85;;;14.50;97.30;;;;;;5011293;28;20231;-70
2021/12/19 11:06:49;;;;;;;18.80;11.27;;;14.10;97.70;;;;;;5011956;28;20064;-70
2021/12/19 11:09:29;;;;;;;19.17;10.98;;;13.50;99.90;;;;;;5010676;28;20033;-71
2021/12/19 11:11:56;;;;;;;16.27;11.50;;;13.80;99.60;;;;;;5010839;28;20069;-70
2021/12/19 11:14:28;;;;;;;17.08;10.45;;;13.20;99.20;;;;;;5012799;28;20034;-69
2021/12/19 11:16:59;;;;;;;16.05;10.40;;;13.30;99.90;;;;;;5013608;28;20468;-70
2021/12/19 11:19:26;;;;;;;16.52;11.18;;;13.80;99.90;;;;;;4994724;28;20043;-69
2021/12/19 11:21:52;;;;;;;22.10;12.13;;;14.10;98.90;;;;;;5011320;28;20030;-70
2021/12/19 11:24:20;;;;;;;15.68;10.05;;;13.80;99.00;;;;;;5013390;28;20072;-72
2021/12/19 11:26:52;;;;;;;17.30;11.13;;;13.70;99.30;;;;;;5008967;28;20029;-68
2021/12/19 11:29:19;;;;;;;16.63;11.05;;;13.50;99.40;;;;;;5023884;28;20054;-71
2021/12/19 11:31:50;;;;;;;16.90;10.57;;;13.30;99.90;;;;;;5004621;28;20042;-69
2021/12/19 11:34:23;;;;;;;14.98;9.55;;;13.90;99.60;;;;;;5013339;28;20033;-70
2021/12/19 11:36:56;;;;;;;17.98;10.85;;;14.80;98.70;;;;;;5011152;28;20065;-70
2021/12/19 11:39:29;;;;;;;14.55;10.00;;;15.80;97.10;;;;;;5010103;28;20026;-71
2021/12/19 11:42:05;;;;;;;17.98;10.45;;;16.30;98.70;;;;;;5011352;28;20336;-65
2021/12/19 11:45:26;;;;;;;14.80;9.02;;;16.70;99.90;;;;;;5009648;28;20025;-67
2021/12/19 11:47:54;;;;;;;14.30;9.48;;;17.30;99.60;;;;;;4992622;28;20034;-69
2021/12/19 11:50:29;;;;;;;18.83;11.82;;;17.30;93.40;;;;;;5005647;28;20372;-70
2021/12/19 11:53:04;;;;;;;16.52;10.48;;;17.50;93.30;;;;;;5011572;28;20048;-68
2021/12/19 11:55:34;;;;;;;13.70;9.52;;;17.20;92.70;;;;;;5010520;28;20435;-68
2021/12/19 11:58:08;;;;;;;13.73;8.85;;;17.40;99.10;;;;;;5010113;28;20029;-66
2021/12/19 12:00:38;;;;;;;12.63;9.27;;;18.20;94.80;;;;;;5011162;28;20037;-70
2021/12/19 12:03:13;;;;;;;15.05;10.73;;;18.50;91.00;;;;;;5011319;28;20130;-70
2021/12/19 12:05:50;;;;;;;12.25;9.57;;;19.40;91.90;;;;;;5009486;28;20026;-70
2021/12/19 12:08:17;;;;;;;12.98;10.07;;;19.50;90.10;;;;;;5008458;28;20030;-70
2021/12/19 12:13:31;;;;;;;13.82;9.60;;;18.80;84.30;;;;;;5011023;28;20052;-70
2021/12/19 12:16:22;;;;;;;15.05;10.15;;;18.70;87.30;;;;;;4994965;28;20040;-70
2021/12/19 12:18:55;;;;;;;11.87;8.30;;;19.90;84.20;;;;;;5010932;28;20080;-70
2021/12/19 12:21:22;;;;;;;16.23;9.32;;;20.40;80.70;;;;;;5010398;28;20040;-70
2021/12/19 12:24:04;;;;;;;12.95;8.90;;;19.90;82.90;;;;;;5011596;28;20026;-71
2021/12/19 12:26:50;;;;;;;10.63;8.90;;;20.60;81.70;;;;;;5010241;28;20222;-69
2021/12/19 12:29:16;;;;;;;13.52;9.02;;;20.60;80.50;;;;;;5010979;28;20553;-70
2021/12/19 12:31:44;;;;;;;11.85;8.63;;;20.60;78.50;;;;;;5009670;28;20125;-70
2021/12/19 12:34:12;;;;;;;12.15;9.02;;;20.50;78.50;;;;;;5008895;28;20029;-71
2021/12/19 12:36:39;;;;;;;10.52;8.90;;;19.30;77.90;;;;;;5010361;28;20379;-69
2021/12/19 12:39:11;;;;;;;12.43;9.45;;;17.70;81.40;;;;;;5009524;28;20034;-70
2021/12/19 12:41:51;;;;;;;12.63;8.93;;;16.60;85.90;;;;;;4999225;28;20030;-69
2021/12/19 12:44:22;;;;;;;16.42;10.15;;;15.80;89.70;;;;;;4999059;28;20027;-70
2021/12/19 12:46:48;;;;;;;12.77;8.52;;;15.20;91.90;;;;;;5008327;28;20061;-69
2021/12/19 12:49:25;;;;;;;11.70;8.48;;;14.60;92.90;;;;;;5007110;28;20065;-71
2021/12/19 12:51:57;;;;;;;15.82;9.77;;;14.50;94.10;;;;;;5004815;28;20128;-69
2021/12/19 12:54:29;;;;;;;12.95;8.70;;;14.10;94.70;;;;;;5003790;28;20101;-69
2021/12/19 12:56:57;;;;;;;13.90;9.18;;;14.30;95.00;;;;;;5009691;28;20022;-70
2021/12/19 12:59:42;;;;;;;12.95;8.40;;;14.20;95.20;;;;;;5012064;28;20426;-70
2021/12/19 13:02:21;;;;;;;12.23;8.98;;;13.70;96.10;;;;;;5008651;28;20439;-71
2021/12/19 13:04:49;;;;;;;14.85;9.43;;;13.70;96.70;;;;;;5010881;28;20041;-69
2021/12/19 13:07:17;;;;;;;16.17;9.50;;;13.90;96.80;;;;;;5006894;28;20088;-69
2021/12/19 13:09:46;;;;;;;13.48;9.48;;;14.50;96.50;;;;;;4990485;28;20081;-69
2021/12/19 13:12:28;;;;;;;13.18;8.80;;;14.80;96.80;;;;;;4990209;28;20110;-70
2021/12/19 13:15:00;;;;;;;15.40;9.43;;;16.40;93.70;;;;;;4990245;28;20026;-68
2021/12/19 13:17:34;;;;;;;24.60;9.93;;;17.80;91.50;;;;;;4989466;28;20035;-69
2021/12/19 13:20:13;;;;;;;21.27;9.55;;;19.00;88.60;;;;;;4989261;28;20026;-69
2021/12/19 13:22:48;;;;;;;12.80;8.70;;;19.90;83.80;;;;;;4990385;28;20475;-70
2021/12/19 13:25:22;;;;;;;27.70;15.95;;;20.10;81.30;;;;;;4990068;28;20080;-72
2021/12/19 13:27:58;;;;;;;18.85;10.50;;;19.50;80.60;;;;;;4988292;28;20062;-63
2021/12/19 13:30:29;;;;;;;14.63;9.85;;;19.40;80.00;;;;;;4989743;28;20041;-70
2021/12/19 13:33:18;;;;;;;10.98;8.43;;;18.80;81.90;;;;;;4989395;28;20081;-69
2021/12/19 13:35:47;;;;;;;11.80;9.07;;;19.60;80.00;;;;;;4990709;28;20030;-68
2021/12/19 13:38:12;;;;;;;15.13;9.38;;;18.50;80.60;;;;;;4990966;28;20031;-69
2021/12/19 13:40:40;;;;;;;12.00;9.30;;;16.80;86.60;;;;;;4989225;28;20141;-69
2021/12/19 13:43:06;;;;;;;14.90;11.25;;;16.60;88.00;;;;;;5005850;28;20061;-71
2021/12/19 13:45:56;;;;;;;12.70;9.35;;;17.40;86.50;;;;;;5007147;28;20036;-71
2021/12/19 13:48:24;;;;;;;13.70;9.85;;;17.10;86.10;;;;;;5006185;28;20105;-69
2021/12/19 13:51:05;;;;;;;12.25;8.93;;;16.80;86.10;;;;;;5009141;28;20482;-71
2021/12/19 13:53:33;;;;;;;13.27;10.00;;;17.90;85.20;;;;;;5007818;28;20117;-70